createdAt,value
2019-06-26T00:01:30.586Z,0.60
2019-06-26T00:03:56.880Z,0.70
2019-06-26T00:06:23.211Z,0.53
2019-06-26T00:08:49.732Z,0.60
2019-06-26T00:11:16.044Z,0.85
2019-06-26T00:13:42.711Z,0.70
2019-06-26T00:16:09.087Z,0.60
2019-06-26T00:18:35.512Z,0.60
2019-06-26T00:21:01.820Z,0.80
2019-06-26T00:23:28.131Z,0.70
2019-06-26T00:25:54.544Z,0.65
2019-06-26T00:28:21.167Z,0.55
2019-06-26T00:30:47.507Z,0.70
2019-06-26T00:33:13.926Z,0.60
2019-06-26T00:35:40.244Z,0.60
2019-06-26T00:38:06.837Z,0.90
2019-06-26T00:40:33.348Z,0.80
2019-06-26T00:42:59.816Z,0.80
2019-06-26T00:45:26.233Z,0.90
2019-06-26T00:47:52.650Z,0.68
2019-06-26T00:50:18.951Z,0.70
2019-06-26T00:52:45.261Z,0.60
2019-06-26T00:55:11.587Z,0.70
2019-06-26T00:57:37.915Z,0.80
2019-06-26T01:00:10.373Z,0.78
2019-06-26T01:02:36.699Z,0.85
2019-06-26T01:05:07.329Z,0.82
2019-06-26T01:07:33.868Z,0.78
2019-06-26T01:10:00.305Z,0.70
2019-06-26T01:12:26.812Z,0.80
2019-06-26T01:14:53.256Z,0.78
2019-06-26T01:17:19.779Z,0.80
2019-06-26T01:19:46.108Z,0.93
2019-06-26T01:22:12.632Z,0.72
2019-06-26T01:24:39.157Z,0.70
2019-06-26T01:27:05.480Z,0.60
2019-06-26T01:29:32.656Z,0.60
2019-06-26T01:31:59.221Z,0.50
2019-06-26T01:34:25.544Z,0.70
2019-06-26T01:36:51.853Z,0.70
2019-06-26T01:39:18.171Z,1.00
2019-06-26T01:41:44.476Z,0.70
2019-06-26T01:44:15.260Z,0.90
2019-06-26T01:46:39.211Z,0.70
2019-06-26T01:49:05.533Z,0.88
2019-06-26T01:51:31.860Z,0.90
2019-06-26T01:53:58.265Z,0.80
2019-06-26T01:56:24.584Z,0.82
2019-06-26T01:58:50.884Z,0.68
2019-06-26T02:01:17.292Z,0.75
2019-06-26T02:03:44.016Z,1.00
2019-06-26T02:06:10.320Z,0.90
2019-06-26T02:08:36.672Z,0.82
2019-06-26T02:11:03.080Z,0.70
2019-06-26T02:13:29.588Z,0.80
2019-06-26T02:15:55.888Z,0.90
2019-06-26T02:18:39.580Z,0.80
2019-06-26T02:21:05.998Z,1.10
2019-06-26T02:23:32.296Z,0.88
2019-06-26T02:25:58.597Z,0.90
2019-06-26T02:28:24.907Z,0.80
2019-06-26T02:30:51.409Z,1.00
2019-06-26T02:33:17.851Z,0.85
2019-06-26T02:35:44.262Z,0.80
2019-06-26T02:38:10.667Z,1.00
2019-06-26T02:40:37.107Z,0.70
2019-06-26T02:43:06.832Z,0.98
2019-06-26T02:45:34.504Z,0.70
2019-06-26T02:48:00.815Z,0.90
2019-06-26T02:50:27.368Z,0.93
2019-06-26T02:52:53.673Z,0.80
2019-06-26T02:55:20.194Z,1.00
2019-06-26T02:57:46.528Z,0.70
2019-06-26T03:00:12.962Z,0.90
2019-06-26T03:02:39.393Z,2.50
2019-06-26T03:05:05.707Z,2.98
2019-06-26T03:07:32.009Z,3.75
2019-06-26T03:09:58.365Z,4.40
2019-06-26T03:12:31.442Z,4.20
2019-06-26T03:15:08.715Z,3.77
2019-06-26T03:17:27.982Z,3.77
2019-06-26T03:20:04.369Z,4.22
2019-06-26T03:22:30.824Z,3.60
2019-06-26T03:24:59.036Z,4.00
2019-06-26T03:27:25.603Z,3.65
2019-06-26T03:29:52.139Z,4.00
2019-06-26T03:32:18.568Z,4.10
2019-06-26T03:34:44.929Z,3.72
2019-06-26T03:37:11.316Z,4.35
2019-06-26T03:39:37.627Z,4.17
2019-06-26T03:42:03.952Z,4.12
2019-06-26T03:44:30.364Z,4.17
2019-06-26T03:46:56.682Z,4.10
2019-06-26T03:49:22.991Z,4.67
2019-06-26T03:51:49.395Z,4.25
2019-06-26T03:54:15.829Z,4.58
2019-06-26T03:56:42.264Z,3.98
2019-06-26T03:59:08.582Z,4.03
2019-06-26T04:01:35.012Z,3.75
2019-06-26T04:04:01.532Z,4.15
2019-06-26T04:06:28.007Z,4.25
2019-06-26T04:08:54.300Z,4.12
2019-06-26T04:11:20.625Z,5.00
2019-06-26T04:13:46.978Z,4.20
2019-06-26T04:16:13.227Z,4.83
2019-06-26T04:18:39.844Z,4.37
2019-06-26T04:21:10.478Z,4.50
2019-06-26T04:23:46.901Z,4.53
2019-06-26T04:26:18.262Z,4.37
2019-06-26T04:28:48.698Z,4.70
2019-06-26T04:31:20.362Z,4.78
2019-06-26T04:33:53.833Z,4.40
2019-06-26T04:36:26.996Z,4.72
2019-06-26T04:38:52.241Z,3.75
2019-06-26T04:41:23.456Z,4.05
2019-06-26T04:43:57.711Z,4.60
2019-06-26T04:46:29.380Z,4.85
2019-06-26T04:49:00.364Z,5.03
2019-06-26T04:51:32.632Z,4.33
2019-06-26T04:54:06.750Z,4.70
2019-06-26T04:56:39.172Z,4.92
2019-06-26T04:59:28.572Z,4.28
2019-06-26T05:02:01.164Z,4.67
2019-06-26T05:04:39.510Z,4.22
2019-06-26T05:07:10.782Z,4.40
2019-06-26T05:09:44.008Z,4.17
2019-06-26T05:12:19.611Z,4.65
2019-06-26T05:14:52.759Z,4.12
2019-06-26T05:17:25.715Z,4.40
2019-06-26T05:19:58.437Z,4.58
2019-06-26T05:22:34.412Z,4.30
2019-06-26T05:25:08.787Z,4.72
2019-06-26T05:27:45.221Z,4.08
2019-06-26T05:30:18.642Z,4.42
2019-06-26T05:32:51.981Z,4.67
2019-06-26T05:35:27.547Z,4.25
2019-06-26T05:38:00.954Z,4.28
2019-06-26T05:40:29.092Z,4.60
2019-06-26T05:43:09.935Z,4.05
2019-06-26T05:45:39.638Z,4.37
2019-06-26T05:48:11.876Z,4.00
2019-06-26T05:50:46.398Z,4.20
2019-06-26T05:53:23.781Z,4.50
2019-06-26T05:55:51.837Z,4.22
2019-06-26T05:58:28.937Z,4.03
2019-06-26T06:01:05.895Z,3.77
2019-06-26T06:03:41.082Z,4.45
2019-06-26T06:06:18.019Z,4.15
2019-06-26T06:08:53.436Z,4.33
2019-06-26T06:11:25.439Z,4.62
2019-06-26T06:14:02.679Z,4.97
2019-06-26T06:16:46.839Z,4.08
2019-06-26T06:19:09.978Z,4.28
2019-06-26T06:21:44.942Z,4.42
2019-06-26T06:24:16.842Z,3.72
2019-06-26T06:26:53.518Z,4.35
2019-06-26T06:29:26.604Z,4.55
2019-06-26T06:32:03.113Z,4.10
2019-06-26T06:34:36.601Z,4.22
2019-06-26T06:37:09.211Z,4.10
2019-06-26T06:39:45.114Z,4.35
2019-06-26T06:42:18.569Z,4.03
2019-06-26T06:44:53.388Z,4.15
2019-06-26T06:47:23.793Z,4.45
2019-06-26T06:50:00.420Z,4.33
2019-06-26T06:52:37.113Z,4.33
2019-06-26T06:55:42.258Z,4.65
2019-06-26T06:58:20.322Z,3.92
2019-06-26T07:00:53.413Z,4.47
2019-06-26T07:03:26.528Z,4.62
2019-06-26T07:06:04.207Z,4.03
2019-06-26T07:08:38.148Z,4.85
2019-06-26T07:11:09.753Z,4.25
2019-06-26T07:13:44.888Z,4.30
2019-06-26T07:16:18.074Z,4.83
2019-06-26T07:18:50.680Z,4.25
2019-06-26T07:21:24.480Z,3.95
2019-06-26T07:24:01.558Z,4.67
2019-06-26T07:26:33.273Z,4.12
2019-06-26T07:29:12.936Z,5.05
2019-06-26T07:31:46.325Z,4.55
2019-06-26T07:34:14.236Z,3.90
2019-06-26T07:36:40.773Z,3.90
2019-06-26T07:39:08.700Z,3.92
2019-06-26T07:41:35.163Z,4.10
2019-06-26T07:44:01.495Z,4.55
2019-06-26T07:46:27.909Z,3.90
2019-06-26T07:48:58.045Z,3.30
2019-06-26T07:51:24.460Z,3.30
2019-06-26T07:53:51.240Z,3.27
2019-06-26T07:56:17.871Z,3.70
2019-06-26T07:58:44.892Z,3.62
2019-06-26T08:01:12.277Z,3.67
2019-06-26T08:03:38.896Z,3.58
2019-06-26T08:06:05.203Z,3.60
2019-06-26T08:08:32.069Z,3.10
2019-06-26T08:10:58.379Z,3.42
2019-06-26T08:13:25.025Z,3.05
2019-06-26T08:15:51.814Z,3.47
2019-06-26T08:18:19.322Z,2.90
2019-06-26T08:21:00.504Z,3.60
2019-06-26T08:23:13.857Z,3.50
2019-06-26T08:25:46.502Z,3.52
2019-06-26T08:28:12.976Z,3.10
2019-06-26T08:30:41.708Z,3.30
2019-06-26T08:33:08.293Z,3.08
2019-06-26T08:35:34.989Z,2.95
2019-06-26T08:38:11.021Z,3.40
2019-06-26T08:40:31.697Z,3.12
2019-06-26T08:43:00.219Z,3.17
2019-06-26T08:45:26.797Z,2.92
2019-06-26T08:47:57.771Z,2.85
2019-06-26T08:50:24.278Z,3.00
2019-06-26T08:52:50.647Z,3.10
2019-06-26T08:55:17.192Z,2.90
2019-06-26T08:57:45.453Z,3.40
2019-06-26T09:00:12.266Z,2.95
2019-06-26T09:02:38.793Z,3.08
2019-06-26T09:05:05.438Z,3.10
2019-06-26T09:07:32.103Z,2.77
2019-06-26T09:09:58.504Z,2.95
2019-06-26T09:12:24.949Z,2.98
2019-06-26T09:14:55.462Z,2.83
2019-06-26T09:17:21.937Z,3.08
2019-06-26T09:19:53.595Z,3.08
2019-06-26T09:22:19.984Z,2.92
2019-06-26T09:24:46.315Z,2.62
2019-06-26T09:27:15.163Z,2.77
2019-06-26T09:29:42.035Z,2.85
2019-06-26T09:32:10.083Z,2.87
2019-06-26T09:34:43.483Z,2.80
2019-06-26T09:37:09.943Z,3.08
2019-06-26T09:39:44.764Z,2.98
2019-06-26T09:42:19.567Z,3.52
2019-06-26T09:44:51.326Z,3.12
2019-06-26T09:47:33.187Z,2.70
2019-06-26T09:50:07.244Z,2.92
2019-06-26T09:52:42.200Z,2.95
2019-06-26T09:55:10.743Z,2.77
2019-06-26T09:57:40.477Z,2.33
2019-06-26T10:00:10.523Z,2.58
2019-06-26T10:02:41.676Z,2.40
2019-06-26T10:05:09.720Z,2.17
2019-06-26T10:07:41.956Z,2.22
2019-06-26T10:10:13.343Z,2.27
2019-06-26T10:12:47.914Z,2.45
2019-06-26T10:15:16.112Z,2.17
2019-06-26T10:17:49.079Z,1.92
2019-06-26T10:20:25.951Z,2.20
2019-06-26T10:23:00.884Z,1.80
2019-06-26T10:25:32.272Z,1.67
2019-06-26T10:28:04.539Z,1.47
2019-06-26T10:30:58.202Z,1.90
2019-06-26T10:33:30.607Z,1.50
2019-06-26T10:36:04.774Z,1.32
2019-06-26T10:38:37.855Z,1.50
2019-06-26T10:41:16.323Z,1.50
2019-06-26T10:43:50.477Z,1.42
2019-06-26T10:46:22.833Z,1.72
2019-06-26T10:48:54.988Z,1.30
2019-06-26T10:51:28.037Z,1.30
2019-06-26T10:54:34.397Z,1.30
2019-06-26T10:57:04.358Z,1.40
2019-06-26T10:59:39.592Z,1.20
2019-06-26T11:02:17.035Z,1.47
2019-06-26T11:04:51.404Z,2.72
2019-06-26T11:07:32.071Z,1.85
2019-06-26T11:10:04.253Z,2.10
2019-06-26T11:12:39.970Z,1.62
2019-06-26T11:15:13.088Z,1.80
2019-06-26T11:17:46.741Z,1.82
2019-06-26T11:20:24.091Z,2.02
2019-06-26T11:22:59.608Z,2.20
2019-06-26T11:25:32.913Z,1.82
2019-06-26T11:28:06.599Z,1.90
2019-06-26T11:30:39.947Z,1.95
2019-06-26T11:33:12.410Z,1.90
2019-06-26T11:35:45.944Z,2.12
2019-06-26T11:38:19.929Z,2.22
2019-06-26T11:40:53.902Z,2.27
2019-06-26T11:43:42.524Z,1.87
2019-06-26T11:46:18.312Z,2.15
2019-06-26T11:48:53.187Z,2.10
2019-06-26T11:51:26.305Z,2.22
2019-06-26T11:54:06.612Z,1.87
2019-06-26T11:56:39.866Z,2.62
2019-06-26T11:59:13.411Z,1.98
2019-06-26T12:01:46.794Z,2.27
2019-06-26T12:04:20.695Z,2.70
2019-06-26T12:06:54.315Z,2.70
2019-06-26T12:09:21.449Z,2.30
2019-06-26T12:11:48.116Z,2.90
2019-06-26T12:14:21.851Z,2.47
2019-06-26T12:17:00.898Z,1.95
2019-06-26T12:20:13.702Z,2.85
2019-06-26T12:22:28.012Z,2.72
2019-06-26T12:24:54.339Z,2.30
2019-06-26T12:27:20.872Z,2.40
2019-06-26T12:29:47.413Z,2.45
2019-06-26T12:32:14.059Z,2.27
2019-06-26T12:34:44.032Z,2.42
2019-06-26T12:37:09.094Z,2.65
2019-06-26T12:39:35.497Z,2.98
2019-06-26T12:42:02.003Z,2.83
2019-06-26T12:44:28.353Z,3.10
2019-06-26T12:46:54.918Z,3.17
2019-06-26T12:49:21.321Z,2.87
2019-06-26T12:51:47.855Z,3.02
2019-06-26T12:54:14.977Z,2.75
2019-06-26T12:56:41.806Z,2.83
2019-06-26T12:59:13.440Z,3.55
2019-06-26T13:01:39.868Z,3.00
2019-06-26T13:04:08.097Z,2.70
2019-06-26T13:06:34.579Z,3.17
2019-06-26T13:09:00.951Z,2.75
2019-06-26T13:11:27.662Z,2.62
2019-06-26T13:14:02.583Z,2.55
2019-06-26T13:16:22.234Z,3.00
2019-06-26T13:18:51.136Z,2.27
2019-06-26T13:21:17.938Z,2.30
2019-06-26T13:23:48.626Z,3.02
2019-06-26T13:26:14.940Z,2.20
2019-06-26T13:28:41.608Z,1.60
2019-06-26T13:31:08.123Z,1.70
2019-06-26T13:33:37.075Z,2.22
2019-06-26T13:36:03.937Z,2.02
2019-06-26T13:38:30.473Z,1.77
2019-06-26T13:40:56.795Z,2.10
2019-06-26T13:43:23.098Z,2.40
2019-06-26T13:45:49.626Z,1.60
2019-06-26T13:48:15.994Z,1.82
2019-06-26T13:50:50.936Z,1.90
2019-06-26T13:53:17.539Z,1.90
2019-06-26T13:55:43.938Z,1.77
2019-06-26T13:58:10.362Z,1.80
2019-06-26T14:00:36.868Z,1.92
2019-06-26T14:03:03.335Z,1.65
2019-06-26T14:05:29.874Z,1.70
2019-06-26T14:07:56.424Z,2.00
2019-06-26T14:10:23.025Z,2.00
2019-06-26T14:12:49.336Z,1.62
2019-06-26T14:15:17.896Z,1.60
2019-06-26T14:17:44.492Z,1.70
2019-06-26T14:20:10.901Z,1.77
2019-06-26T14:22:37.302Z,1.67
2019-06-26T14:25:05.544Z,1.85
2019-06-26T14:27:31.851Z,2.00
2019-06-26T14:29:58.290Z,2.17
2019-06-26T14:32:27.046Z,1.50
2019-06-26T14:34:53.573Z,1.80
2019-06-26T14:37:20.040Z,1.95
2019-06-26T14:39:46.471Z,1.62
2019-06-26T14:42:13.007Z,2.10
2019-06-26T14:44:39.347Z,1.62
2019-06-26T14:47:05.821Z,2.02
2019-06-26T14:49:32.247Z,2.25
2019-06-26T14:51:58.687Z,1.90
2019-06-26T14:54:25.029Z,1.70
2019-06-26T14:56:51.439Z,2.02
2019-06-26T14:59:19.748Z,1.45
2019-06-26T15:01:45.986Z,1.52
2019-06-26T15:04:12.340Z,1.70
2019-06-26T15:06:38.906Z,1.62
2019-06-26T15:09:05.404Z,1.87
2019-06-26T15:11:31.711Z,1.55
2019-06-26T15:13:58.036Z,1.70
2019-06-26T15:16:24.448Z,1.70
2019-06-26T15:18:51.026Z,1.42
2019-06-26T15:21:17.679Z,2.00
2019-06-26T15:23:53.437Z,1.60
2019-06-26T15:26:19.832Z,1.90
2019-06-26T15:28:46.380Z,1.65
2019-06-26T15:31:12.693Z,1.82
2019-06-26T15:33:39.065Z,2.65
2019-06-26T15:36:05.772Z,2.67
2019-06-26T15:38:32.102Z,2.08
2019-06-26T15:40:58.489Z,2.35
2019-06-26T15:43:24.941Z,2.45
2019-06-26T15:45:51.394Z,2.17
2019-06-26T15:48:17.707Z,2.15
2019-06-26T15:50:44.298Z,2.20
2019-06-26T15:53:10.611Z,2.50
2019-06-26T15:55:37.246Z,2.60
2019-06-26T15:58:03.488Z,2.72
2019-06-26T16:00:30.032Z,2.60
2019-06-26T16:02:57.207Z,2.70
2019-06-26T16:05:23.682Z,2.85
2019-06-26T16:07:49.977Z,2.52
2019-06-26T16:10:16.429Z,2.17
2019-06-26T16:12:43.004Z,2.72
2019-06-26T16:15:09.549Z,2.87
2019-06-26T16:17:37.867Z,2.72
2019-06-26T16:20:07.316Z,3.10
2019-06-26T16:22:33.654Z,2.58
2019-06-26T16:25:00.181Z,2.30
2019-06-26T16:27:26.734Z,2.50
2019-06-26T16:29:53.159Z,4.03
2019-06-26T16:32:19.587Z,3.45
2019-06-26T16:34:45.998Z,3.87
2019-06-26T16:37:12.312Z,3.70
2019-06-26T16:39:38.731Z,4.75
2019-06-26T16:42:05.040Z,4.15
2019-06-26T16:44:31.343Z,4.40
2019-06-26T16:46:59.364Z,4.17
2019-06-26T16:49:25.673Z,3.80
2019-06-26T16:51:51.981Z,4.37
2019-06-26T16:54:18.397Z,4.17
2019-06-26T16:56:44.865Z,4.25
2019-06-26T16:59:11.297Z,4.22
2019-06-26T17:01:37.844Z,4.30
2019-06-26T17:04:04.546Z,4.15
2019-06-26T17:06:30.871Z,4.53
2019-06-26T17:08:57.296Z,4.45
2019-06-26T17:11:23.717Z,4.55
2019-06-26T17:13:50.336Z,4.25
2019-06-26T17:16:16.927Z,4.40
2019-06-26T17:18:43.302Z,4.55
2019-06-26T17:21:09.726Z,5.03
2019-06-26T17:23:37.037Z,4.78
2019-06-26T17:26:03.363Z,4.17
2019-06-26T17:28:32.156Z,4.72
2019-06-26T17:31:00.751Z,3.98
2019-06-26T17:33:27.587Z,4.17
2019-06-26T17:35:54.017Z,4.62
2019-06-26T17:38:21.028Z,4.10
2019-06-26T17:40:47.500Z,4.70
2019-06-26T17:43:13.783Z,3.80
2019-06-26T17:45:41.181Z,3.22
2019-06-26T17:48:07.512Z,3.90
2019-06-26T17:50:33.819Z,4.00
2019-06-26T17:53:00.153Z,3.70
2019-06-26T17:55:26.579Z,3.85
2019-06-26T17:57:52.982Z,4.65
2019-06-26T18:00:23.084Z,4.50
2019-06-26T18:02:49.399Z,4.72
2019-06-26T18:05:15.707Z,4.83
2019-06-26T18:07:42.130Z,4.83
2019-06-26T18:10:08.540Z,4.15
2019-06-26T18:12:34.871Z,4.40
2019-06-26T18:15:01.271Z,4.85
2019-06-26T18:17:27.999Z,4.72
2019-06-26T18:19:55.656Z,4.12
2019-06-26T18:22:21.939Z,4.00
2019-06-26T18:24:48.256Z,4.78
2019-06-26T18:27:14.667Z,4.55
2019-06-26T18:29:41.095Z,4.45
2019-06-26T18:32:08.988Z,4.72
2019-06-26T18:34:35.396Z,4.97
2019-06-26T18:37:02.007Z,5.08
2019-06-26T18:39:28.579Z,4.53
2019-06-26T18:41:54.900Z,4.85
2019-06-26T18:44:22.893Z,4.85
2019-06-26T18:46:49.556Z,4.53
2019-06-26T18:49:15.981Z,4.80
2019-06-26T18:51:42.390Z,4.58
2019-06-26T18:54:08.919Z,4.53
2019-06-26T18:56:35.351Z,4.70
2019-06-26T18:59:01.781Z,4.80
2019-06-26T19:01:28.092Z,4.58
2019-06-26T19:03:54.515Z,4.30
2019-06-26T19:06:21.163Z,4.35
2019-06-26T19:08:47.580Z,4.78
2019-06-26T19:11:14.095Z,5.17
2019-06-26T19:13:41.016Z,4.53
2019-06-26T19:16:07.408Z,4.35
2019-06-26T19:18:34.116Z,4.83
2019-06-26T19:21:01.151Z,4.62
2019-06-26T19:23:27.531Z,4.78
2019-06-26T19:25:53.848Z,4.95
2019-06-26T19:28:23.105Z,4.85
2019-06-26T19:30:48.693Z,4.53
2019-06-26T19:33:15.142Z,4.53
2019-06-26T19:35:41.661Z,4.58
2019-06-26T19:38:08.097Z,4.65
2019-06-26T19:40:34.453Z,4.85
2019-06-26T19:43:00.841Z,4.62
2019-06-26T19:45:27.376Z,4.40
2019-06-26T19:47:53.790Z,4.08
2019-06-26T19:50:23.445Z,4.58
2019-06-26T19:52:48.664Z,4.22
2019-06-26T19:55:15.209Z,3.98
2019-06-26T19:57:41.628Z,4.20
2019-06-26T20:00:08.567Z,3.92
2019-06-26T20:02:34.990Z,4.10
2019-06-26T20:05:01.729Z,3.22
2019-06-26T20:07:28.128Z,3.72
2019-06-26T20:09:54.451Z,3.05
2019-06-26T20:12:21.011Z,3.00
2019-06-26T20:14:47.349Z,3.08
2019-06-26T20:17:13.652Z,2.50
2019-06-26T20:19:40.073Z,2.08
2019-06-26T20:22:07.092Z,2.20
2019-06-26T20:24:43.558Z,2.55
2019-06-26T20:27:02.177Z,2.15
2019-06-26T20:29:28.611Z,2.25
2019-06-26T20:31:55.039Z,1.70
2019-06-26T20:34:21.494Z,2.15
2019-06-26T20:36:47.812Z,2.08
2019-06-26T20:39:14.166Z,1.85
2019-06-26T20:41:40.464Z,2.00
2019-06-26T20:44:06.801Z,2.10
2019-06-26T20:46:33.225Z,1.85
2019-06-26T20:48:59.657Z,1.62
2019-06-26T20:51:25.959Z,1.65
2019-06-26T20:53:52.402Z,1.42
2019-06-26T20:56:18.828Z,1.90
2019-06-26T20:58:45.228Z,1.72
2019-06-26T21:01:11.548Z,1.65
2019-06-26T21:03:38.173Z,1.45
2019-06-26T21:06:04.592Z,1.67
2019-06-26T21:08:30.900Z,1.50
2019-06-26T21:10:57.350Z,1.70
2019-06-26T21:13:23.615Z,1.90
2019-06-26T21:15:52.890Z,1.65
2019-06-26T21:18:18.721Z,1.85
2019-06-26T21:20:45.369Z,1.50
2019-06-26T21:23:18.602Z,1.20
2019-06-26T21:25:39.995Z,1.62
2019-06-26T21:28:06.528Z,1.15
2019-06-26T21:30:32.828Z,1.35
2019-06-26T21:32:59.247Z,1.60
2019-06-26T21:35:25.566Z,1.10
2019-06-26T21:37:51.990Z,1.35
2019-06-26T21:40:18.431Z,1.10
2019-06-26T21:42:44.948Z,1.10
2019-06-26T21:45:11.392Z,1.45
2019-06-26T21:47:37.688Z,0.80
2019-06-26T21:50:07.554Z,1.20
2019-06-26T21:52:33.977Z,1.10
2019-06-26T21:55:00.409Z,1.40
2019-06-26T21:57:26.929Z,1.90
2019-06-26T21:59:53.696Z,2.40
2019-06-26T22:02:19.998Z,2.45
2019-06-26T22:04:46.299Z,2.77
2019-06-26T22:07:12.627Z,2.95
2019-06-26T22:09:39.053Z,2.72
2019-06-26T22:12:05.885Z,4.03
2019-06-26T22:14:32.278Z,4.17
2019-06-26T22:16:59.009Z,4.00
2019-06-26T22:19:26.250Z,4.40
2019-06-26T22:21:52.843Z,4.70
2019-06-26T22:24:19.359Z,4.42
2019-06-26T22:26:45.895Z,4.60
2019-06-26T22:29:12.420Z,4.70
2019-06-26T22:31:38.747Z,5.10
2019-06-26T22:34:05.197Z,5.35
2019-06-26T22:36:31.567Z,5.40
2019-06-26T22:38:58.116Z,5.53
2019-06-26T22:41:24.531Z,5.15
2019-06-26T22:43:51.073Z,5.50
2019-06-26T22:46:17.381Z,5.55
2019-06-26T22:48:43.718Z,5.05
2019-06-26T22:51:10.043Z,4.78
2019-06-26T22:53:36.359Z,5.40
2019-06-26T22:56:07.489Z,4.72
2019-06-26T22:58:31.141Z,4.95
2019-06-26T23:00:57.683Z,5.15
2019-06-26T23:03:24.072Z,5.30
2019-06-26T23:05:50.357Z,4.70
2019-06-26T23:08:16.810Z,5.00
2019-06-26T23:10:43.125Z,5.33
2019-06-26T23:13:09.890Z,5.97
2019-06-26T23:15:36.470Z,5.10
2019-06-26T23:18:03.198Z,5.37
2019-06-26T23:20:29.537Z,5.30
2019-06-26T23:22:55.849Z,5.10
2019-06-26T23:25:22.374Z,5.20
2019-06-26T23:27:48.721Z,5.05
2019-06-26T23:30:16.831Z,5.03
2019-06-26T23:32:43.273Z,5.17
2019-06-26T23:35:09.922Z,5.00
2019-06-26T23:37:36.360Z,5.62
2019-06-26T23:40:04.419Z,5.92
2019-06-26T23:42:31.051Z,4.72
2019-06-26T23:44:57.480Z,5.15
2019-06-26T23:47:23.790Z,5.22
2019-06-26T23:49:50.245Z,5.17
2019-06-26T23:52:16.521Z,4.95
2019-06-26T23:54:42.845Z,5.90
2019-06-26T23:57:09.456Z,5.28
2019-06-26T23:59:35.805Z,4.70
